createdAt,value
2019-02-11T00:01:47.218Z,6.10
2019-02-11T00:04:17.518Z,6.10
2019-02-11T00:06:47.918Z,6.10
2019-02-11T00:09:18.340Z,6.10
2019-02-11T00:11:48.687Z,6.10
2019-02-11T00:14:18.964Z,6.10
2019-02-11T00:16:49.205Z,6.10
2019-02-11T00:19:19.617Z,6.00
2019-02-11T00:21:49.876Z,6.00
2019-02-11T00:24:20.678Z,6.00
2019-02-11T00:26:50.922Z,6.00
2019-02-11T00:29:21.236Z,5.90
2019-02-11T00:31:51.683Z,5.90
2019-02-11T00:34:21.990Z,6.00
2019-02-11T00:36:52.302Z,6.00
2019-02-11T00:39:22.710Z,5.90
2019-02-11T00:41:52.992Z,5.90
2019-02-11T00:44:23.314Z,5.90
2019-02-11T00:46:53.569Z,5.90
2019-02-11T00:49:23.932Z,5.80
2019-02-11T00:51:54.242Z,5.80
2019-02-11T00:54:24.519Z,5.80
2019-02-11T00:56:54.814Z,5.70
2019-02-11T00:59:25.124Z,5.80
2019-02-11T01:01:55.457Z,5.80
2019-02-11T01:04:25.821Z,5.80
2019-02-11T01:06:56.234Z,5.70
2019-02-11T01:09:26.527Z,5.70
2019-02-11T01:11:56.998Z,5.70
2019-02-11T01:14:27.308Z,5.70
2019-02-11T01:16:57.648Z,5.70
2019-02-11T01:19:29.592Z,5.60
2019-02-11T01:21:59.991Z,5.60
2019-02-11T01:24:30.253Z,5.60
2019-02-11T01:27:00.742Z,5.50
2019-02-11T01:29:31.170Z,5.50
2019-02-11T01:32:01.471Z,5.50
2019-02-11T01:34:31.768Z,5.50
2019-02-11T01:37:02.099Z,5.50
2019-02-11T01:39:32.447Z,5.50
2019-02-11T01:42:03.920Z,5.40
2019-02-11T01:44:34.192Z,5.50
2019-02-11T01:47:04.671Z,5.50
2019-02-11T01:49:35.015Z,5.60
2019-02-11T01:52:05.320Z,5.70
2019-02-11T01:54:35.840Z,5.90
2019-02-11T01:57:06.222Z,5.90
2019-02-11T01:59:36.561Z,6.00
2019-02-11T02:02:06.792Z,6.00
2019-02-11T02:04:37.120Z,6.10
2019-02-11T02:07:07.815Z,6.20
2019-02-11T02:09:38.277Z,6.20
2019-02-11T02:12:08.644Z,6.30
2019-02-11T02:14:39.133Z,6.20
2019-02-11T02:17:09.536Z,6.20
2019-02-11T02:19:39.945Z,6.20
2019-02-11T02:22:10.233Z,6.20
2019-02-11T02:24:40.566Z,6.10
2019-02-11T02:27:10.918Z,6.20
2019-02-11T02:29:41.261Z,6.20
2019-02-11T02:32:11.617Z,6.20
2019-02-11T02:34:42.067Z,6.30
2019-02-11T02:37:12.462Z,6.30
2019-02-11T02:39:42.944Z,6.40
2019-02-11T02:42:13.354Z,6.40
2019-02-11T02:44:43.780Z,6.40
2019-02-11T02:47:14.186Z,6.50
2019-02-11T02:49:44.553Z,6.50
2019-02-11T02:52:14.996Z,6.50
2019-02-11T02:54:45.533Z,6.50
2019-02-11T02:57:15.814Z,6.60
2019-02-11T02:59:46.133Z,6.50
2019-02-11T03:02:16.453Z,6.50
2019-02-11T03:04:47.791Z,6.60
2019-02-11T03:07:18.079Z,6.60
2019-02-11T03:09:48.375Z,6.60
2019-02-11T03:12:18.796Z,6.50
2019-02-11T03:14:49.126Z,6.50
2019-02-11T03:17:19.350Z,6.50
2019-02-11T03:19:51.685Z,6.50
2019-02-11T03:22:21.991Z,6.60
2019-02-11T03:24:54.169Z,6.50
2019-02-11T03:27:24.212Z,6.50
2019-02-11T03:29:54.665Z,6.50
2019-02-11T03:32:25.018Z,6.50
2019-02-11T03:34:55.338Z,6.50
2019-02-11T03:37:25.694Z,6.50
2019-02-11T03:39:56.153Z,6.50
2019-02-11T03:42:26.513Z,6.40
2019-02-11T03:44:56.837Z,6.40
2019-02-11T03:47:27.179Z,6.50
2019-02-11T03:49:57.504Z,6.40
2019-02-11T03:52:27.810Z,6.40
2019-02-11T03:54:58.074Z,6.40
2019-02-11T03:57:28.324Z,6.50
2019-02-11T03:59:58.590Z,6.50
2019-02-11T04:02:29.066Z,6.50
2019-02-11T04:04:59.459Z,6.50
2019-02-11T04:07:29.883Z,6.50
2019-02-11T04:10:00.316Z,6.50
2019-02-11T04:12:30.544Z,6.40
2019-02-11T04:15:00.859Z,6.40
2019-02-11T04:17:31.171Z,6.40
2019-02-11T04:20:01.446Z,6.40
2019-02-11T04:22:31.931Z,6.30
2019-02-11T04:25:02.581Z,6.30
2019-02-11T04:27:32.850Z,6.30
2019-02-11T04:30:03.151Z,6.30
2019-02-11T04:32:33.503Z,6.30
2019-02-11T04:35:03.835Z,6.30
2019-02-11T04:37:34.276Z,6.30
2019-02-11T04:40:04.647Z,6.20
2019-02-11T04:42:34.978Z,6.20
2019-02-11T04:45:05.796Z,6.20
2019-02-11T04:47:36.064Z,6.10
2019-02-11T04:50:07.594Z,6.10
2019-02-11T04:52:37.922Z,6.10
2019-02-11T04:55:08.415Z,6.10
2019-02-11T04:57:38.801Z,6.10
2019-02-11T05:00:09.837Z,6.00
2019-02-11T05:02:40.239Z,6.00
2019-02-11T05:05:10.534Z,6.00
2019-02-11T05:07:40.914Z,6.00
2019-02-11T05:10:12.236Z,5.90
2019-02-11T05:12:42.636Z,5.80
2019-02-11T05:15:12.944Z,5.90
2019-02-11T05:17:43.284Z,6.00
2019-02-11T05:20:13.584Z,6.00
2019-02-11T05:22:43.887Z,6.00
2019-02-11T05:25:14.264Z,6.00
2019-02-11T05:27:47.217Z,6.00
2019-02-11T05:30:17.588Z,6.00
2019-02-11T05:32:47.865Z,6.00
2019-02-11T05:35:18.240Z,6.00
2019-02-11T05:37:48.581Z,5.90
2019-02-11T05:40:18.885Z,6.00
2019-02-11T05:42:51.543Z,5.90
2019-02-11T05:45:21.845Z,5.90
2019-02-11T05:47:52.170Z,5.90
2019-02-11T05:50:23.126Z,5.90
2019-02-11T05:52:53.422Z,5.90
2019-02-11T05:55:24.011Z,5.90
2019-02-11T05:57:54.370Z,5.80
2019-02-11T06:00:24.801Z,5.90
2019-02-11T06:02:55.117Z,5.90
2019-02-11T06:05:25.566Z,5.90
2019-02-11T06:07:55.943Z,5.80
2019-02-11T06:10:26.361Z,5.80
2019-02-11T06:12:56.699Z,5.80
2019-02-11T06:15:27.011Z,5.80
2019-02-11T06:17:57.336Z,5.80
2019-02-11T06:20:27.651Z,5.80
2019-02-11T06:22:58.008Z,5.80
2019-02-11T06:25:28.292Z,5.80
2019-02-11T06:27:58.596Z,5.80
2019-02-11T06:30:29.184Z,5.70
2019-02-11T06:33:01.003Z,5.70
2019-02-11T06:35:31.414Z,5.70
2019-02-11T06:38:01.836Z,5.60
2019-02-11T06:40:32.202Z,5.60
2019-02-11T06:43:02.652Z,5.60
2019-02-11T06:45:32.952Z,5.60
2019-02-11T06:48:03.656Z,5.60
2019-02-11T06:50:34.077Z,5.60
2019-02-11T06:53:04.442Z,5.60
2019-02-11T06:55:34.757Z,5.50
2019-02-11T06:58:05.056Z,5.50
2019-02-11T07:00:35.345Z,5.50
2019-02-11T07:03:05.774Z,5.50
2019-02-11T07:05:36.014Z,5.60
2019-02-11T07:08:07.972Z,5.60
2019-02-11T07:10:38.573Z,5.60
2019-02-11T07:13:08.979Z,5.70
2019-02-11T07:15:39.369Z,5.70
2019-02-11T07:18:09.716Z,5.70
2019-02-11T07:20:39.997Z,5.70
2019-02-11T07:23:12.453Z,5.70
2019-02-11T07:25:42.845Z,5.60
2019-02-11T07:28:13.285Z,5.70
2019-02-11T07:30:43.608Z,5.70
2019-02-11T07:33:13.981Z,5.80
2019-02-11T07:35:44.533Z,5.80
2019-02-11T07:38:14.885Z,5.90
2019-02-11T07:40:45.152Z,5.90
2019-02-11T07:43:22.107Z,6.00
2019-02-11T07:46:02.235Z,6.10
2019-02-11T07:48:32.603Z,6.20
2019-02-11T07:51:02.961Z,6.10
2019-02-11T07:53:33.350Z,6.00
2019-02-11T07:56:04.843Z,5.90
2019-02-11T07:58:35.234Z,5.80
2019-02-11T08:01:05.621Z,5.60
2019-02-11T08:03:36.045Z,5.50
2019-02-11T08:06:06.419Z,5.30
2019-02-11T08:08:36.816Z,5.30
2019-02-11T08:11:07.415Z,5.30
2019-02-11T08:13:38.021Z,5.40
2019-02-11T08:16:08.502Z,5.40
2019-02-11T08:18:38.900Z,5.20
2019-02-11T08:21:09.355Z,5.00
2019-02-11T08:23:39.605Z,4.90
2019-02-11T08:26:09.998Z,4.90
2019-02-11T08:28:40.335Z,4.70
2019-02-11T08:31:10.767Z,4.50
2019-02-11T08:33:42.121Z,4.50
2019-02-11T08:36:13.886Z,4.50
2019-02-11T08:38:44.139Z,4.50
2019-02-11T08:41:14.513Z,4.60
2019-02-11T08:43:44.870Z,4.60
2019-02-11T08:46:15.216Z,4.70
2019-02-11T08:48:45.563Z,4.70
2019-02-11T08:51:17.004Z,4.50
2019-02-11T08:53:47.331Z,4.30
2019-02-11T08:56:17.633Z,4.40
2019-02-11T08:58:48.062Z,4.40
2019-02-11T09:01:18.362Z,4.30
2019-02-11T09:03:48.746Z,4.30
2019-02-11T09:06:19.160Z,4.30
2019-02-11T09:08:49.477Z,4.20
2019-02-11T09:11:19.894Z,4.20
2019-02-11T09:13:50.308Z,4.00
2019-02-11T09:16:20.659Z,3.90
2019-02-11T09:18:51.136Z,3.90
2019-02-11T09:21:21.537Z,4.00
2019-02-11T09:23:51.913Z,3.90
2019-02-11T09:26:22.279Z,3.90
2019-02-11T09:28:52.548Z,3.80
2019-02-11T09:31:22.879Z,3.80
2019-02-11T09:33:53.181Z,3.80
2019-02-11T09:36:23.517Z,3.80
2019-02-11T09:38:53.787Z,3.80
2019-02-11T09:41:24.059Z,3.70
2019-02-11T09:43:54.370Z,3.60
2019-02-11T09:46:25.097Z,3.60
2019-02-11T09:48:55.535Z,3.60
2019-02-11T09:51:27.486Z,3.60
2019-02-11T09:53:58.183Z,3.60
2019-02-11T09:56:28.592Z,3.60
2019-02-11T09:58:58.983Z,3.60
2019-02-11T10:01:29.459Z,3.70
2019-02-11T10:03:59.975Z,3.80
2019-02-11T10:06:30.351Z,3.80
2019-02-11T10:09:00.788Z,3.80
2019-02-11T10:11:32.765Z,3.90
2019-02-11T10:14:03.070Z,3.90
2019-02-11T10:16:33.834Z,3.80
2019-02-11T10:19:04.259Z,3.90
2019-02-11T10:21:34.773Z,3.80
2019-02-11T10:24:05.243Z,3.80
2019-02-11T10:26:35.555Z,3.90
2019-02-11T10:29:05.902Z,3.90
2019-02-11T10:31:36.370Z,4.00
2019-02-11T10:34:06.629Z,4.10
2019-02-11T10:36:36.994Z,4.20
2019-02-11T10:39:07.436Z,4.20
2019-02-11T10:41:39.471Z,4.20
2019-02-11T10:44:09.819Z,4.30
2019-02-11T10:46:40.191Z,4.20
2019-02-11T10:49:10.515Z,4.10
2019-02-11T10:51:40.875Z,4.10
2019-02-11T10:54:12.292Z,4.00
2019-02-11T10:56:42.587Z,4.00
2019-02-11T10:59:12.970Z,4.00
2019-02-11T11:01:43.399Z,4.00
2019-02-11T11:04:13.806Z,4.00
2019-02-11T11:06:44.182Z,3.90
2019-02-11T11:09:16.504Z,3.90
2019-02-11T11:11:46.904Z,3.90
2019-02-11T11:14:17.468Z,4.00
2019-02-11T11:16:47.849Z,4.10
2019-02-11T11:19:18.392Z,4.10
2019-02-11T11:21:48.814Z,4.30
2019-02-11T11:24:19.227Z,4.30
2019-02-11T11:26:49.595Z,4.40
2019-02-11T11:29:21.129Z,4.40
2019-02-11T11:31:53.109Z,4.50
2019-02-11T11:34:23.606Z,4.60
2019-02-11T11:36:53.863Z,4.60
2019-02-11T11:39:26.043Z,4.70
2019-02-11T11:41:56.472Z,4.80
2019-02-11T11:44:26.953Z,4.80
2019-02-11T11:46:57.360Z,4.90
2019-02-11T11:49:27.729Z,4.90
2019-02-11T11:51:58.178Z,5.00
2019-02-11T11:54:28.592Z,5.00
2019-02-11T11:56:59.606Z,5.10
2019-02-11T11:59:30.103Z,5.20
2019-02-11T12:02:00.398Z,5.40
2019-02-11T12:04:30.707Z,5.40
2019-02-11T12:07:00.989Z,5.40
2019-02-11T12:09:31.240Z,5.30
2019-02-11T12:12:01.608Z,5.00
2019-02-11T12:14:31.900Z,4.70
2019-02-11T12:17:03.131Z,4.60
2019-02-11T12:19:33.957Z,4.60
2019-02-11T12:22:04.248Z,4.70
2019-02-11T12:24:34.668Z,4.80
2019-02-11T12:27:05.027Z,4.80
2019-02-11T12:29:35.401Z,4.90
2019-02-11T12:32:05.704Z,4.90
2019-02-11T12:34:36.047Z,5.00
2019-02-11T12:37:09.253Z,5.10
2019-02-11T12:39:38.389Z,5.30
2019-02-11T12:42:08.745Z,5.30
2019-02-11T12:44:39.350Z,5.40
2019-02-11T12:47:13.817Z,5.40
2019-02-11T12:49:41.665Z,5.40
2019-02-11T12:52:11.972Z,5.50
2019-02-11T12:54:43.130Z,5.50
2019-02-11T12:57:13.532Z,5.70
2019-02-11T12:59:43.821Z,5.60
2019-02-11T13:02:14.187Z,5.70
2019-02-11T13:04:44.594Z,5.70
2019-02-11T13:07:14.960Z,5.60
2019-02-11T13:09:45.359Z,5.30
2019-02-11T13:12:15.990Z,5.00
2019-02-11T13:14:46.315Z,4.80
2019-02-11T13:17:32.710Z,4.80
2019-02-11T13:20:06.624Z,4.90
2019-02-11T13:22:20.692Z,5.00
2019-02-11T13:24:51.094Z,5.20
2019-02-11T13:27:21.558Z,5.40
2019-02-11T13:29:51.946Z,5.50
2019-02-11T13:32:22.410Z,5.50
2019-02-11T13:34:52.765Z,5.50
2019-02-11T13:37:23.266Z,5.40
2019-02-11T13:39:53.670Z,5.40
2019-02-11T13:42:24.020Z,5.30
2019-02-11T13:44:54.434Z,5.00
2019-02-11T13:47:24.829Z,4.90
2019-02-11T13:49:57.303Z,5.10
2019-02-11T13:52:28.274Z,5.20
2019-02-11T13:54:58.549Z,5.30
2019-02-11T13:57:28.887Z,5.30
2019-02-11T13:59:59.172Z,5.20
2019-02-11T14:02:29.592Z,5.20
2019-02-11T14:04:59.991Z,5.20
2019-02-11T14:07:30.336Z,5.30
2019-02-11T14:10:02.343Z,5.30
2019-02-11T14:12:32.605Z,5.30
2019-02-11T14:15:03.015Z,5.30
2019-02-11T14:17:33.503Z,5.50
2019-02-11T14:20:04.187Z,5.50
2019-02-11T14:22:34.600Z,5.50
2019-02-11T14:25:05.111Z,5.50
2019-02-11T14:27:35.480Z,5.60
2019-02-11T14:30:06.055Z,5.60
2019-02-11T14:32:36.588Z,5.70
2019-02-11T14:35:07.267Z,5.70
2019-02-11T14:37:37.787Z,5.70
2019-02-11T14:40:08.991Z,5.70
2019-02-11T14:42:39.569Z,5.60
2019-02-11T14:45:11.025Z,5.60
2019-02-11T14:47:44.553Z,5.50
2019-02-11T14:50:13.913Z,5.40
2019-02-11T14:52:44.408Z,5.30
2019-02-11T14:55:14.959Z,5.30
2019-02-11T14:57:45.509Z,5.20
2019-02-11T15:00:18.931Z,5.30
2019-02-11T15:02:49.568Z,5.20
2019-02-11T15:05:20.123Z,5.20
2019-02-11T15:07:50.653Z,5.20
2019-02-11T15:10:21.006Z,5.10
2019-02-11T15:12:51.402Z,5.10
2019-02-11T15:15:21.914Z,5.00
2019-02-11T15:17:52.303Z,4.90
2019-02-11T15:20:23.947Z,4.90
2019-02-11T15:22:54.549Z,4.80
2019-02-11T15:25:24.968Z,4.80
2019-02-11T15:27:55.321Z,4.70
2019-02-11T15:30:25.805Z,4.80
2019-02-11T15:32:56.143Z,4.70
2019-02-11T15:35:26.433Z,4.70
2019-02-11T15:37:56.813Z,4.70
2019-02-11T15:40:27.256Z,4.60
2019-02-11T15:42:57.697Z,4.50
2019-02-11T15:45:28.015Z,4.50
2019-02-11T15:47:58.441Z,4.40
2019-02-11T15:50:28.954Z,4.40
2019-02-11T15:52:59.441Z,4.40
2019-02-11T15:55:29.874Z,4.40
2019-02-11T15:58:02.087Z,4.30
2019-02-11T16:00:32.437Z,4.30
2019-02-11T16:03:04.332Z,4.30
2019-02-11T16:05:34.942Z,4.30
2019-02-11T16:08:05.372Z,4.30
2019-02-11T16:10:35.893Z,4.20
2019-02-11T16:13:06.321Z,4.20
2019-02-11T16:15:36.850Z,4.20
2019-02-11T16:18:07.499Z,4.10
2019-02-11T16:20:38.112Z,4.10
2019-02-11T16:23:08.515Z,4.10
2019-02-11T16:25:38.861Z,4.10
2019-02-11T16:28:09.231Z,4.10
2019-02-11T16:30:40.838Z,4.00
2019-02-11T16:33:12.380Z,4.10
2019-02-11T16:35:42.774Z,4.10
2019-02-11T16:38:13.414Z,4.10
2019-02-11T16:40:43.842Z,4.10
2019-02-11T16:43:15.640Z,4.10
2019-02-11T16:45:46.085Z,4.10
2019-02-11T16:48:16.649Z,4.00
2019-02-11T16:50:47.087Z,4.00
2019-02-11T16:53:19.997Z,4.00
2019-02-11T16:55:50.582Z,4.10
2019-02-11T16:58:21.026Z,4.00
2019-02-11T17:00:51.351Z,4.00
2019-02-11T17:03:21.753Z,4.00
2019-02-11T17:05:52.101Z,4.00
2019-02-11T17:08:22.562Z,4.00
2019-02-11T17:10:54.519Z,4.00
2019-02-11T17:13:24.853Z,4.00
2019-02-11T17:15:55.224Z,4.00
2019-02-11T17:18:25.632Z,4.00
2019-02-11T17:20:56.250Z,4.10
2019-02-11T17:23:26.652Z,4.10
2019-02-11T17:25:57.084Z,4.10
2019-02-11T17:28:27.613Z,4.10
2019-02-11T17:30:59.904Z,4.10
2019-02-11T17:33:30.313Z,4.20
2019-02-11T17:36:02.117Z,4.20
2019-02-11T17:38:32.751Z,4.20
2019-02-11T17:41:04.292Z,4.20
2019-02-11T17:43:34.909Z,4.20
2019-02-11T17:46:06.040Z,4.30
2019-02-11T17:48:39.574Z,4.30
2019-02-11T17:52:39.254Z,4.20
2019-02-11T17:55:10.984Z,4.40
2019-02-11T17:57:43.779Z,4.40
2019-02-11T18:00:26.047Z,4.40
2019-02-11T18:02:56.518Z,4.40
2019-02-11T18:05:26.870Z,4.40
2019-02-11T18:08:04.333Z,4.30
2019-02-11T18:10:34.967Z,4.30
2019-02-11T18:13:05.627Z,4.30
2019-02-11T18:15:36.063Z,4.20
2019-02-11T18:18:06.533Z,4.20
2019-02-11T18:20:36.861Z,4.10
2019-02-11T18:23:07.278Z,4.10
2019-02-11T18:25:40.380Z,4.10
2019-02-11T18:28:12.416Z,4.10
2019-02-11T18:30:43.211Z,4.10
2019-02-11T18:33:15.277Z,4.20
2019-02-11T18:35:45.951Z,4.30
2019-02-11T18:38:17.687Z,4.30
2019-02-11T18:40:48.196Z,4.30
2019-02-11T18:43:20.528Z,4.30
2019-02-11T18:45:50.735Z,4.30
2019-02-11T18:48:21.095Z,4.30
2019-02-11T18:50:52.017Z,4.30
2019-02-11T18:53:22.720Z,4.20
2019-02-11T18:55:54.657Z,4.10
2019-02-11T18:58:27.342Z,3.60
2019-02-11T19:00:58.713Z,3.40
2019-02-11T19:03:31.084Z,3.30
2019-02-11T19:06:01.417Z,4.20
2019-02-11T19:08:35.242Z,3.30
2019-02-11T19:11:05.653Z,3.40
2019-02-11T19:13:38.506Z,3.30
2019-02-11T19:16:10.205Z,3.30
2019-02-11T19:18:43.408Z,3.30
2019-02-11T19:21:13.928Z,3.30
2019-02-11T19:23:45.432Z,3.40
2019-02-11T19:26:21.164Z,3.40
2019-02-11T19:28:53.546Z,3.40
2019-02-11T19:31:23.863Z,3.40
2019-02-11T19:33:55.362Z,3.20
2019-02-11T19:36:28.460Z,3.10
2019-02-11T19:39:01.524Z,3.20
2019-02-11T19:41:33.605Z,3.00
2019-02-11T19:44:04.149Z,3.00
2019-02-11T19:46:35.851Z,2.90
2019-02-11T19:49:06.255Z,3.00
2019-02-11T19:51:36.655Z,2.90
2019-02-11T19:54:07.114Z,2.90
2019-02-11T19:56:37.469Z,2.90
2019-02-11T19:59:07.800Z,3.00
2019-02-11T20:01:38.237Z,2.90
2019-02-11T20:04:09.880Z,2.90
2019-02-11T20:06:40.835Z,3.00
2019-02-11T20:09:11.115Z,3.00
2019-02-11T20:11:41.632Z,3.00
2019-02-11T20:14:12.019Z,3.10
2019-02-11T20:16:42.505Z,3.00
2019-02-11T20:19:12.843Z,3.10
2019-02-11T20:21:43.735Z,3.10
2019-02-11T20:24:14.407Z,3.10
2019-02-11T20:26:44.844Z,3.10
2019-02-11T20:29:15.170Z,3.20
2019-02-11T20:31:47.644Z,3.20
2019-02-11T20:34:18.115Z,3.20
2019-02-11T20:36:49.185Z,3.20
2019-02-11T20:39:19.626Z,3.20
2019-02-11T20:41:50.054Z,3.30
2019-02-11T20:44:20.464Z,3.30
2019-02-11T20:46:52.286Z,3.30
2019-02-11T20:49:23.007Z,3.30
2019-02-11T20:51:53.437Z,3.30
2019-02-11T20:54:23.903Z,3.30
2019-02-11T20:56:54.852Z,3.30
2019-02-11T20:59:27.903Z,3.30
2019-02-11T21:01:58.217Z,3.30
2019-02-11T21:04:28.679Z,3.20
2019-02-11T21:07:01.838Z,3.10
2019-02-11T21:09:32.228Z,3.00
2019-02-11T21:12:03.962Z,2.80
2019-02-11T21:14:34.377Z,2.50
2019-02-11T21:17:04.915Z,2.40
2019-02-11T21:19:35.290Z,2.40
2019-02-11T21:22:05.617Z,2.40
2019-02-11T21:24:36.053Z,2.40
2019-02-11T21:27:08.468Z,2.40
2019-02-11T21:29:41.017Z,2.40
2019-02-11T21:32:13.646Z,2.40
2019-02-11T21:34:43.992Z,2.40
2019-02-11T21:37:14.345Z,2.40
2019-02-11T21:39:44.781Z,2.40
2019-02-11T21:42:15.248Z,2.50
2019-02-11T21:44:45.672Z,2.50
2019-02-11T21:47:16.023Z,2.50
2019-02-11T21:49:46.357Z,2.50
2019-02-11T21:52:16.696Z,2.60
2019-02-11T21:54:47.041Z,2.60
2019-02-11T21:57:17.570Z,2.60
2019-02-11T21:59:48.022Z,2.60
2019-02-11T22:02:19.939Z,2.60
2019-02-11T22:04:50.344Z,2.60
2019-02-11T22:07:20.738Z,2.60
2019-02-11T22:09:51.062Z,2.50
2019-02-11T22:12:21.362Z,2.50
2019-02-11T22:14:51.764Z,2.50
2019-02-11T22:17:22.121Z,2.50
2019-02-11T22:19:52.467Z,2.50
2019-02-11T22:22:23.836Z,2.50
2019-02-11T22:24:54.290Z,2.50
2019-02-11T22:27:24.611Z,2.50
2019-02-11T22:29:55.328Z,2.50
2019-02-11T22:32:26.284Z,2.50
2019-02-11T22:34:56.683Z,2.50
2019-02-11T22:37:26.961Z,2.50
2019-02-11T22:39:57.291Z,2.40
2019-02-11T22:42:28.003Z,2.40
2019-02-11T22:44:58.344Z,2.40
2019-02-11T22:47:29.038Z,2.40
2019-02-11T22:49:59.619Z,2.40
2019-02-11T22:52:29.954Z,2.50
2019-02-11T22:55:00.457Z,2.50
2019-02-11T22:57:30.724Z,2.50
2019-02-11T23:00:01.079Z,2.40
2019-02-11T23:02:31.834Z,2.40
2019-02-11T23:05:02.199Z,2.40
2019-02-11T23:07:32.750Z,2.40
2019-02-11T23:10:03.141Z,2.40
2019-02-11T23:12:33.505Z,2.40
2019-02-11T23:15:03.853Z,2.40
2019-02-11T23:17:34.331Z,2.40
2019-02-11T23:20:04.852Z,2.50
2019-02-11T23:22:35.256Z,2.50
2019-02-11T23:25:05.658Z,2.60
2019-02-11T23:27:36.068Z,2.60
2019-02-11T23:30:13.355Z,2.60
2019-02-11T23:32:38.818Z,2.60
2019-02-11T23:35:09.122Z,2.70
2019-02-11T23:37:39.584Z,2.70
2019-02-11T23:40:09.956Z,2.70
2019-02-11T23:42:40.291Z,2.80
2019-02-11T23:45:10.598Z,2.80
2019-02-11T23:47:40.974Z,2.80
2019-02-11T23:50:11.284Z,2.80
2019-02-11T23:52:41.661Z,2.80
2019-02-11T23:55:11.952Z,2.80
2019-02-11T23:57:42.289Z,2.80
